sensor_id;sensor_type;location;lat;lon;timestamp;temperature;humidity
68109;SHT30;54893;49.864;19.084;2023-11-22T00:02:30;0.34;99.99
68109;SHT30;54893;49.864;19.084;2023-11-22T00:07:32;0.34;99.99
68109;SHT30;54893;49.864;19.084;2023-11-22T00:12:32;0.39;99.99
68109;SHT30;54893;49.864;19.084;2023-11-22T00:17:38;0.26;99.99
68109;SHT30;54893;49.864;19.084;2023-11-22T00:22:39;0.17;99.99
68109;SHT30;54893;49.864;19.084;2023-11-22T00:27:39;0.17;99.99
68109;SHT30;54893;49.864;19.084;2023-11-22T00:32:40;0.14;99.99
68109;SHT30;54893;49.864;19.084;2023-11-22T00:37:43;0.14;99.99
68109;SHT30;54893;49.864;19.084;2023-11-22T00:42:43;0.13;99.99
68109;SHT30;54893;49.864;19.084;2023-11-22T00:47:43;0.17;99.99
68109;SHT30;54893;49.864;19.084;2023-11-22T00:52:44;0.16;99.99
68109;SHT30;54893;49.864;19.084;2023-11-22T00:57:44;0.13;99.99
68109;SHT30;54893;49.864;19.084;2023-11-22T01:02:45;0.14;99.99
68109;SHT30;54893;49.864;19.084;2023-11-22T01:07:45;0.14;99.99
68109;SHT30;54893;49.864;19.084;2023-11-22T01:12:46;0.11;99.99
68109;SHT30;54893;49.864;19.084;2023-11-22T01:17:46;0.11;99.99
68109;SHT30;54893;49.864;19.084;2023-11-22T01:22:49;0.13;99.99
68109;SHT30;54893;49.864;19.084;2023-11-22T01:27:51;0.10;99.99
68109;SHT30;54893;49.864;19.084;2023-11-22T01:32:51;0.06;99.99
68109;SHT30;54893;49.864;19.084;2023-11-22T01:37:52;-0.05;99.99
68109;SHT30;54893;49.864;19.084;2023-11-22T01:42:52;-0.03;99.99
68109;SHT30;54893;49.864;19.084;2023-11-22T01:47:55;-0.04;99.99
68109;SHT30;54893;49.864;19.084;2023-11-22T01:52:55;-0.03;99.99
68109;SHT30;54893;49.864;19.084;2023-11-22T01:57:56;-0.03;99.99
68109;SHT30;54893;49.864;19.084;2023-11-22T02:02:56;-0.18;99.99
68109;SHT30;54893;49.864;19.084;2023-11-22T02:07:57;-0.15;99.99
68109;SHT30;54893;49.864;19.084;2023-11-22T02:12:57;-0.10;99.99
68109;SHT30;54893;49.864;19.084;2023-11-22T02:17:58;-0.13;99.99
68109;SHT30;54893;49.864;19.084;2023-11-22T02:23:09;-0.14;99.99
68109;SHT30;54893;49.864;19.084;2023-11-22T02:28:10;-0.17;99.99
68109;SHT30;54893;49.864;19.084;2023-11-22T02:33:10;-0.14;99.99
68109;SHT30;54893;49.864;19.084;2023-11-22T02:38:11;-0.18;99.99
68109;SHT30;54893;49.864;19.084;2023-11-22T02:43:11;-0.10;99.99
68109;SHT30;54893;49.864;19.084;2023-11-22T02:48:11;-0.19;99.99
68109;SHT30;54893;49.864;19.084;2023-11-22T02:53:13;-0.18;99.99
68109;SHT30;54893;49.864;19.084;2023-11-22T02:58:13;-0.24;99.99
68109;SHT30;54893;49.864;19.084;2023-11-22T03:03:14;-0.19;99.99
68109;SHT30;54893;49.864;19.084;2023-11-22T03:08:14;-0.27;99.99
68109;SHT30;54893;49.864;19.084;2023-11-22T03:13:16;-0.21;99.99
68109;SHT30;54893;49.864;19.084;2023-11-22T03:18:17;-0.28;99.99
68109;SHT30;54893;49.864;19.084;2023-11-22T03:23:18;-0.31;99.99
68109;SHT30;54893;49.864;19.084;2023-11-22T03:28:18;-0.24;99.99
68109;SHT30;54893;49.864;19.084;2023-11-22T03:33:19;-0.24;99.99
68109;SHT30;54893;49.864;19.084;2023-11-22T03:38:20;-0.34;99.99
68109;SHT30;54893;49.864;19.084;2023-11-22T03:43:21;-0.37;99.99
68109;SHT30;54893;49.864;19.084;2023-11-22T03:48:22;-0.28;99.99
68109;SHT30;54893;49.864;19.084;2023-11-22T03:53:23;-0.37;99.99
68109;SHT30;54893;49.864;19.084;2023-11-22T03:58:24;-0.39;99.99
68109;SHT30;54893;49.864;19.084;2023-11-22T04:03:24;-0.48;99.99
68109;SHT30;54893;49.864;19.084;2023-11-22T04:08:24;-0.51;99.99
68109;SHT30;54893;49.864;19.084;2023-11-22T04:13:26;-0.48;99.99
68109;SHT30;54893;49.864;19.084;2023-11-22T04:18:27;-0.49;99.99
68109;SHT30;54893;49.864;19.084;2023-11-22T04:23:27;-0.55;99.99
68109;SHT30;54893;49.864;19.084;2023-11-22T04:28:28;-0.59;99.99
68109;SHT30;54893;49.864;19.084;2023-11-22T04:33:31;-0.55;99.99
68109;SHT30;54893;49.864;19.084;2023-11-22T04:38:32;-0.57;99.99
68109;SHT30;54893;49.864;19.084;2023-11-22T04:43:34;-0.66;99.99
68109;SHT30;54893;49.864;19.084;2023-11-22T04:48:34;-0.58;99.99
68109;SHT30;54893;49.864;19.084;2023-11-22T04:53:34;-0.57;99.99
68109;SHT30;54893;49.864;19.084;2023-11-22T04:58:35;-0.52;99.99
68109;SHT30;54893;49.864;19.084;2023-11-22T05:03:36;-0.45;99.99
68109;SHT30;54893;49.864;19.084;2023-11-22T05:08:37;-0.54;99.99
68109;SHT30;54893;49.864;19.084;2023-11-22T05:13:37;-0.47;99.99
68109;SHT30;54893;49.864;19.084;2023-11-22T05:18:38;-0.58;99.99
68109;SHT30;54893;49.864;19.084;2023-11-22T05:23:38;-0.61;99.99
68109;SHT30;54893;49.864;19.084;2023-11-22T05:28:38;-0.59;99.99
68109;SHT30;54893;49.864;19.084;2023-11-22T05:33:39;-0.68;99.99
68109;SHT30;54893;49.864;19.084;2023-11-22T05:38:40;-0.69;99.99
68109;SHT30;54893;49.864;19.084;2023-11-22T05:43:40;-0.72;99.99
68109;SHT30;54893;49.864;19.084;2023-11-22T05:48:42;-0.78;99.99
68109;SHT30;54893;49.864;19.084;2023-11-22T05:53:43;-0.72;99.99
68109;SHT30;54893;49.864;19.084;2023-11-22T05:58:43;-0.76;99.99
68109;SHT30;54893;49.864;19.084;2023-11-22T06:03:44;-0.71;99.99
68109;SHT30;54893;49.864;19.084;2023-11-22T06:08:44;-0.68;99.99
68109;SHT30;54893;49.864;19.084;2023-11-22T06:13:44;-0.68;99.99
68109;SHT30;54893;49.864;19.084;2023-11-22T06:18:47;-0.69;99.99
68109;SHT30;54893;49.864;19.084;2023-11-22T06:23:47;-0.58;99.99
68109;SHT30;54893;49.864;19.084;2023-11-22T06:28:47;-0.61;99.99
68109;SHT30;54893;49.864;19.084;2023-11-22T06:33:49;-0.76;99.99
68109;SHT30;54893;49.864;19.084;2023-11-22T06:38:49;-0.68;99.99
68109;SHT30;54893;49.864;19.084;2023-11-22T06:43:50;-0.68;99.99
68109;SHT30;54893;49.864;19.084;2023-11-22T06:48:50;-0.64;99.99
68109;SHT30;54893;49.864;19.084;2023-11-22T06:53:51;-0.78;99.99
68109;SHT30;54893;49.864;19.084;2023-11-22T06:58:54;-0.78;99.99
68109;SHT30;54893;49.864;19.084;2023-11-22T07:03:55;-0.71;99.99
68109;SHT30;54893;49.864;19.084;2023-11-22T07:08:55;-0.81;99.99
68109;SHT30;54893;49.864;19.084;2023-11-22T07:13:56;-0.81;99.99
68109;SHT30;54893;49.864;19.084;2023-11-22T07:18:57;-0.73;99.99
68109;SHT30;54893;49.864;19.084;2023-11-22T07:23:58;-0.75;99.99
68109;SHT30;54893;49.864;19.084;2023-11-22T07:29:01;-0.76;99.99
68109;SHT30;54893;49.864;19.084;2023-11-22T07:34:02;-0.78;99.99
68109;SHT30;54893;49.864;19.084;2023-11-22T07:39:02;-0.75;99.99
68109;SHT30;54893;49.864;19.084;2023-11-22T07:44:02;-0.64;99.99
68109;SHT30;54893;49.864;19.084;2023-11-22T07:49:03;-0.73;99.80
68109;SHT30;54893;49.864;19.084;2023-11-22T07:54:03;-0.79;99.99
68109;SHT30;54893;49.864;19.084;2023-11-22T07:59:04;-0.81;99.99
68109;SHT30;54893;49.864;19.084;2023-11-22T08:04:05;-0.78;99.99
68109;SHT30;54893;49.864;19.084;2023-11-22T08:09:05;-0.79;99.96
68109;SHT30;54893;49.864;19.084;2023-11-22T08:14:08;-0.65;99.99
68109;SHT30;54893;49.864;19.084;2023-11-22T08:19:09;-0.71;99.99
68109;SHT30;54893;49.864;19.084;2023-11-22T08:24:09;-0.76;99.99
68109;SHT30;54893;49.864;19.084;2023-11-22T08:29:11;-0.82;99.99
68109;SHT30;54893;49.864;19.084;2023-11-22T08:34:12;-0.78;99.99
68109;SHT30;54893;49.864;19.084;2023-11-22T08:39:12;-0.79;99.99
68109;SHT30;54893;49.864;19.084;2023-11-22T08:44:12;-0.76;99.99
68109;SHT30;54893;49.864;19.084;2023-11-22T08:49:13;-0.79;99.99
68109;SHT30;54893;49.864;19.084;2023-11-22T08:54:15;-0.75;99.99
68109;SHT30;54893;49.864;19.084;2023-11-22T08:59:17;-0.78;99.99
68109;SHT30;54893;49.864;19.084;2023-11-22T09:04:18;-0.73;99.99
68109;SHT30;54893;49.864;19.084;2023-11-22T09:09:18;-0.73;99.83
68109;SHT30;54893;49.864;19.084;2023-11-22T09:14:19;-0.76;99.85
68109;SHT30;54893;49.864;19.084;2023-11-22T09:19:24;-0.73;99.99
68109;SHT30;54893;49.864;19.084;2023-11-22T09:24:25;-0.58;99.33
68109;SHT30;54893;49.864;19.084;2023-11-22T09:29:25;-0.57;99.11
68109;SHT30;54893;49.864;19.084;2023-11-22T09:34:26;-0.49;99.10
68109;SHT30;54893;49.864;19.084;2023-11-22T09:39:26;-0.42;99.20
68109;SHT30;54893;49.864;19.084;2023-11-22T09:44:27;-0.61;98.87
68109;SHT30;54893;49.864;19.084;2023-11-22T09:49:29;-0.57;99.02
68109;SHT30;54893;49.864;19.084;2023-11-22T09:54:31;-0.79;98.48
68109;SHT30;54893;49.864;19.084;2023-11-22T09:59:35;-0.81;99.00
68109;SHT30;54893;49.864;19.084;2023-11-22T10:04:36;-0.85;98.91
68109;SHT30;54893;49.864;19.084;2023-11-22T10:09:36;-0.73;99.54
68109;SHT30;54893;49.864;19.084;2023-11-22T10:14:38;-0.78;99.29
68109;SHT30;54893;49.864;19.084;2023-11-22T10:19:39;-0.91;99.47
68109;SHT30;54893;49.864;19.084;2023-11-22T10:24:39;-1.05;99.35
68109;SHT30;54893;49.864;19.084;2023-11-22T10:29:41;-1.03;99.99
68109;SHT30;54893;49.864;19.084;2023-11-22T10:34:41;-0.91;99.52
68109;SHT30;54893;49.864;19.084;2023-11-22T10:39:41;-1.00;99.18
68109;SHT30;54893;49.864;19.084;2023-11-22T10:44:42;-1.02;99.79
68109;SHT30;54893;49.864;19.084;2023-11-22T10:49:43;-0.88;99.41
68109;SHT30;54893;49.864;19.084;2023-11-22T10:54:49;-0.72;99.37
68109;SHT30;54893;49.864;19.084;2023-11-22T10:59:54;-0.55;99.31
68109;SHT30;54893;49.864;19.084;2023-11-22T11:04:59;-0.62;98.68
68109;SHT30;54893;49.864;19.084;2023-11-22T11:10:02;-0.76;99.10
68109;SHT30;54893;49.864;19.084;2023-11-22T11:15:04;-0.57;99.01
68109;SHT30;54893;49.864;19.084;2023-11-22T11:20:05;-0.73;98.71
68109;SHT30;54893;49.864;19.084;2023-11-22T11:25:14;-0.97;98.21
68109;SHT30;54893;49.864;19.084;2023-11-22T11:35:50;-0.68;98.76
68109;SHT30;54893;49.864;19.084;2023-11-22T11:40:51;-0.76;97.98
68109;SHT30;54893;49.864;19.084;2023-11-22T11:45:54;-1.05;99.21
68109;SHT30;54893;49.864;19.084;2023-11-22T11:50:55;-0.99;99.06
68109;SHT30;54893;49.864;19.084;2023-11-22T11:55:55;-0.75;98.58
68109;SHT30;54893;49.864;19.084;2023-11-22T12:00:56;-0.88;98.82
68109;SHT30;54893;49.864;19.084;2023-11-22T12:05:57;-0.86;98.91
68109;SHT30;54893;49.864;19.084;2023-11-22T12:10:57;-0.86;98.92
68109;SHT30;54893;49.864;19.084;2023-11-22T12:16:00;-0.82;98.68
68109;SHT30;54893;49.864;19.084;2023-11-22T12:21:02;-0.82;98.73
68109;SHT30;54893;49.864;19.084;2023-11-22T12:26:04;-0.88;98.58
68109;SHT30;54893;49.864;19.084;2023-11-22T12:36:10;-0.91;98.24
68109;SHT30;54893;49.864;19.084;2023-11-22T12:41:11;-0.97;98.35
68109;SHT30;54893;49.864;19.084;2023-11-22T12:46:14;-1.03;98.37
68109;SHT30;54893;49.864;19.084;2023-11-22T12:51:17;-0.88;98.92
68109;SHT30;54893;49.864;19.084;2023-11-22T12:56:17;-1.03;97.36
68109;SHT30;54893;49.864;19.084;2023-11-22T13:01:18;-0.95;97.99
68109;SHT30;54893;49.864;19.084;2023-11-22T13:06:18;-0.96;98.44
68109;SHT30;54893;49.864;19.084;2023-11-22T13:11:19;-0.97;98.28
68109;SHT30;54893;49.864;19.084;2023-11-22T13:16:19;-0.93;98.39
68109;SHT30;54893;49.864;19.084;2023-11-22T13:21:20;-0.89;97.98
68109;SHT30;54893;49.864;19.084;2023-11-22T13:26:21;-0.83;98.13
68109;SHT30;54893;49.864;19.084;2023-11-22T13:31:22;-0.89;98.38
68109;SHT30;54893;49.864;19.084;2023-11-22T13:36:22;-0.81;98.85
68109;SHT30;54893;49.864;19.084;2023-11-22T13:41:23;-0.83;98.62
68109;SHT30;54893;49.864;19.084;2023-11-22T13:46:25;-0.96;98.38
68109;SHT30;54893;49.864;19.084;2023-11-22T13:51:26;-0.99;98.13
68109;SHT30;54893;49.864;19.084;2023-11-22T13:56:27;-1.05;98.14
68109;SHT30;54893;49.864;19.084;2023-11-22T14:01:28;-1.06;97.45
68109;SHT30;54893;49.864;19.084;2023-11-22T14:06:28;-1.06;97.96
68109;SHT30;54893;49.864;19.084;2023-11-22T14:11:29;-1.03;98.30
68109;SHT30;54893;49.864;19.084;2023-11-22T14:16:29;-1.03;98.48
68109;SHT30;54893;49.864;19.084;2023-11-22T14:21:34;-1.07;97.90
68109;SHT30;54893;49.864;19.084;2023-11-22T14:26:35;-1.09;99.01
68109;SHT30;54893;49.864;19.084;2023-11-22T14:31:36;-1.09;98.66
68109;SHT30;54893;49.864;19.084;2023-11-22T14:36:37;-1.15;98.80
68109;SHT30;54893;49.864;19.084;2023-11-22T14:41:37;-1.05;98.61
68109;SHT30;54893;49.864;19.084;2023-11-22T14:46:37;-1.05;98.55
68109;SHT30;54893;49.864;19.084;2023-11-22T14:51:38;-1.05;98.01
68109;SHT30;54893;49.864;19.084;2023-11-22T14:56:39;-1.13;97.12
68109;SHT30;54893;49.864;19.084;2023-11-22T15:01:40;-1.15;97.64
68109;SHT30;54893;49.864;19.084;2023-11-22T15:06:42;-1.15;98.09
68109;SHT30;54893;49.864;19.084;2023-11-22T15:11:44;-1.17;98.73
68109;SHT30;54893;49.864;19.084;2023-11-22T15:16:45;-1.15;98.78
68109;SHT30;54893;49.864;19.084;2023-11-22T15:21:45;-1.19;98.62
68109;SHT30;54893;49.864;19.084;2023-11-22T15:26:45;-1.17;98.56
68109;SHT30;54893;49.864;19.084;2023-11-22T15:31:46;-1.12;99.00
68109;SHT30;54893;49.864;19.084;2023-11-22T15:36:47;-1.13;98.68
68109;SHT30;54893;49.864;19.084;2023-11-22T15:41:47;-1.09;98.64
68109;SHT30;54893;49.864;19.084;2023-11-22T15:46:48;-1.30;98.56
68109;SHT30;54893;49.864;19.084;2023-11-22T15:51:48;-1.30;99.47
68109;SHT30;54893;49.864;19.084;2023-11-22T15:56:49;-1.21;98.55
68109;SHT30;54893;49.864;19.084;2023-11-22T16:01:50;-1.30;99.04
68109;SHT30;54893;49.864;19.084;2023-11-22T16:06:51;-1.15;98.40
68109;SHT30;54893;49.864;19.084;2023-11-22T16:11:51;-1.27;98.07
68109;SHT30;54893;49.864;19.084;2023-11-22T16:16:51;-1.33;98.31
68109;SHT30;54893;49.864;19.084;2023-11-22T16:21:52;-1.32;98.96
68109;SHT30;54893;49.864;19.084;2023-11-22T16:26:53;-1.27;98.56
68109;SHT30;54893;49.864;19.084;2023-11-22T16:31:53;-1.37;98.70
68109;SHT30;54893;49.864;19.084;2023-11-22T16:36:53;-1.50;98.68
68109;SHT30;54893;49.864;19.084;2023-11-22T16:41:54;-1.39;98.88
68109;SHT30;54893;49.864;19.084;2023-11-22T16:46:54;-1.37;99.11
68109;SHT30;54893;49.864;19.084;2023-11-22T16:51:54;-1.47;99.17
68109;SHT30;54893;49.864;19.084;2023-11-22T16:56:55;-1.43;99.50
68109;SHT30;54893;49.864;19.084;2023-11-22T17:01:56;-1.51;99.29
68109;SHT30;54893;49.864;19.084;2023-11-22T17:06:59;-1.44;98.93
68109;SHT30;54893;49.864;19.084;2023-11-22T17:11:59;-1.43;99.03
68109;SHT30;54893;49.864;19.084;2023-11-22T17:16:59;-1.40;99.14
68109;SHT30;54893;49.864;19.084;2023-11-22T17:22:00;-1.43;98.76
68109;SHT30;54893;49.864;19.084;2023-11-22T17:27:02;-1.47;98.89
68109;SHT30;54893;49.864;19.084;2023-11-22T17:32:02;-1.46;98.87
68109;SHT30;54893;49.864;19.084;2023-11-22T17:37:03;-1.57;99.12
68109;SHT30;54893;49.864;19.084;2023-11-22T17:42:03;-1.50;98.88
68109;SHT30;54893;49.864;19.084;2023-11-22T17:47:03;-1.46;99.37
68109;SHT30;54893;49.864;19.084;2023-11-22T17:52:05;-1.47;99.16
68109;SHT30;54893;49.864;19.084;2023-11-22T17:57:06;-1.53;99.48
68109;SHT30;54893;49.864;19.084;2023-11-22T18:02:07;-1.53;99.49
68109;SHT30;54893;49.864;19.084;2023-11-22T18:07:08;-1.47;99.67
68109;SHT30;54893;49.864;19.084;2023-11-22T18:12:08;-1.44;99.20
68109;SHT30;54893;49.864;19.084;2023-11-22T18:17:10;-1.59;98.98
68109;SHT30;54893;49.864;19.084;2023-11-22T18:22:11;-1.54;99.25
68109;SHT30;54893;49.864;19.084;2023-11-22T18:27:12;-1.47;98.87
68109;SHT30;54893;49.864;19.084;2023-11-22T18:32:12;-1.51;99.17
68109;SHT30;54893;49.864;19.084;2023-11-22T18:37:13;-1.63;99.28
68109;SHT30;54893;49.864;19.084;2023-11-22T18:42:14;-1.57;99.26
68109;SHT30;54893;49.864;19.084;2023-11-22T18:47:14;-1.54;99.46
68109;SHT30;54893;49.864;19.084;2023-11-22T18:52:15;-1.50;99.04
68109;SHT30;54893;49.864;19.084;2023-11-22T18:57:15;-1.54;98.91
68109;SHT30;54893;49.864;19.084;2023-11-22T19:02:16;-1.61;98.90
68109;SHT30;54893;49.864;19.084;2023-11-22T19:07:17;-1.60;98.87
68109;SHT30;54893;49.864;19.084;2023-11-22T19:12:17;-1.67;98.64
68109;SHT30;54893;49.864;19.084;2023-11-22T19:17:18;-1.63;99.10
68109;SHT30;54893;49.864;19.084;2023-11-22T19:22:22;-1.63;99.09
68109;SHT30;54893;49.864;19.084;2023-11-22T19:27:22;-1.51;99.19
68109;SHT30;54893;49.864;19.084;2023-11-22T19:32:23;-1.59;98.73
68109;SHT30;54893;49.864;19.084;2023-11-22T19:37:24;-1.56;98.92
68109;SHT30;54893;49.864;19.084;2023-11-22T19:42:27;-1.49;99.03
68109;SHT30;54893;49.864;19.084;2023-11-22T19:47:29;-1.49;99.00
68109;SHT30;54893;49.864;19.084;2023-11-22T19:52:29;-1.50;99.28
68109;SHT30;54893;49.864;19.084;2023-11-22T19:57:30;-1.49;99.05
68109;SHT30;54893;49.864;19.084;2023-11-22T20:02:30;-1.49;98.66
68109;SHT30;54893;49.864;19.084;2023-11-22T20:07:30;-1.42;98.70
68109;SHT30;54893;49.864;19.084;2023-11-22T20:12:31;-1.33;98.08
68109;SHT30;54893;49.864;19.084;2023-11-22T20:17:31;-1.47;97.99
68109;SHT30;54893;49.864;19.084;2023-11-22T20:22:32;-1.53;98.79
68109;SHT30;54893;49.864;19.084;2023-11-22T20:27:32;-1.54;98.40
68109;SHT30;54893;49.864;19.084;2023-11-22T20:32:32;-1.50;98.14
68109;SHT30;54893;49.864;19.084;2023-11-22T20:37:33;-1.61;97.78
68109;SHT30;54893;49.864;19.084;2023-11-22T20:42:36;-1.54;98.17
68109;SHT30;54893;49.864;19.084;2023-11-22T20:47:37;-1.50;97.85
68109;SHT30;54893;49.864;19.084;2023-11-22T20:52:39;-1.53;97.68
68109;SHT30;54893;49.864;19.084;2023-11-22T20:57:40;-1.53;97.59
68109;SHT30;54893;49.864;19.084;2023-11-22T21:02:40;-1.54;97.52
68109;SHT30;54893;49.864;19.084;2023-11-22T21:07:40;-1.49;97.21
68109;SHT30;54893;49.864;19.084;2023-11-22T21:12:41;-1.61;97.23
68109;SHT30;54893;49.864;19.084;2023-11-22T21:17:41;-1.63;97.40
68109;SHT30;54893;49.864;19.084;2023-11-22T21:22:42;-1.63;97.47
68109;SHT30;54893;49.864;19.084;2023-11-22T21:27:43;-1.54;97.22
68109;SHT30;54893;49.864;19.084;2023-11-22T21:32:46;-1.59;97.14
68109;SHT30;54893;49.864;19.084;2023-11-22T21:37:46;-1.56;97.20
68109;SHT30;54893;49.864;19.084;2023-11-22T21:42:47;-1.63;97.11
68109;SHT30;54893;49.864;19.084;2023-11-22T21:47:48;-1.60;97.20
68109;SHT30;54893;49.864;19.084;2023-11-22T21:52:48;-1.59;97.15
68109;SHT30;54893;49.864;19.084;2023-11-22T21:57:48;-1.59;97.30
68109;SHT30;54893;49.864;19.084;2023-11-22T22:02:49;-1.56;97.23
68109;SHT30;54893;49.864;19.084;2023-11-22T22:07:49;-1.59;97.16
68109;SHT30;54893;49.864;19.084;2023-11-22T22:12:50;-1.57;96.83
68109;SHT30;54893;49.864;19.084;2023-11-22T22:17:51;-1.59;97.01
68109;SHT30;54893;49.864;19.084;2023-11-22T22:22:52;-1.50;96.74
68109;SHT30;54893;49.864;19.084;2023-11-22T22:27:52;-1.53;96.86
68109;SHT30;54893;49.864;19.084;2023-11-22T22:32:53;-1.53;96.83
68109;SHT30;54893;49.864;19.084;2023-11-22T22:37:53;-1.54;96.91
68109;SHT30;54893;49.864;19.084;2023-11-22T22:42:53;-1.56;96.94
68109;SHT30;54893;49.864;19.084;2023-11-22T22:47:54;-1.56;97.01
68109;SHT30;54893;49.864;19.084;2023-11-22T22:52:54;-1.56;96.98
68109;SHT30;54893;49.864;19.084;2023-11-22T22:57:55;-1.56;97.15
68109;SHT30;54893;49.864;19.084;2023-11-22T23:02:56;-1.56;96.89
68109;SHT30;54893;49.864;19.084;2023-11-22T23:07:57;-1.56;96.67
68109;SHT30;54893;49.864;19.084;2023-11-22T23:12:58;-1.53;96.71
68109;SHT30;54893;49.864;19.084;2023-11-22T23:17:58;-1.51;96.54
68109;SHT30;54893;49.864;19.084;2023-11-22T23:22:58;-1.42;95.96
68109;SHT30;54893;49.864;19.084;2023-11-22T23:27:59;-1.44;95.99
68109;SHT30;54893;49.864;19.084;2023-11-22T23:33:00;-1.47;96.25
68109;SHT30;54893;49.864;19.084;2023-11-22T23:38:00;-1.53;96.54
68109;SHT30;54893;49.864;19.084;2023-11-22T23:43:01;-1.57;96.51
68109;SHT30;54893;49.864;19.084;2023-11-22T23:48:03;-1.54;96.42
68109;SHT30;54893;49.864;19.084;2023-11-22T23:53:04;-1.68;96.61
68109;SHT30;54893;49.864;19.084;2023-11-22T23:58:04;-1.64;96.73
